Weather at Buduk Kabul Airstrip

Public forecast

Using degrees Celsius for public forecast. Weather courtesy of forecast.io.

Closest aviation weather report (METAR) to Buduk Kabul Airstrip

Closest report is Brunei International Airport, 83.1 nm (153.9 km) NW. Retrieved 2021/10/22 10:30 UTC (0 seconds ago):

WBSB 221030Z 31004KT 9999 FEW015 BKN300 28/25 Q1011 NOSIG

Closest aviation forecast (TAF) to Buduk Kabul Airstrip

Closest forecast is Brunei International Airport, 83.1 nm (153.9 km) NW. Retrieved 2021/10/22 06:12 UTC (4 hours ago):

TAF WBSB 220450Z 2206/2312 28010KT 9999 SCT015 FEW016CB TEMPO 2209/2212 7000 SHRA TSRA BECMG 2212/2214 20003KT SCT014 FEW015CB